Hulbert, Michigan
Current Conditions -  °F | °C
As of 4:34 PM on Monday 24 Nov 2014 (Local Time) from KERY Reporting Station
Overcast Overcast  
Wind Chill: 24°   Ceiling: 1000
Heat Index: 33°   Visibility: 10mi
Dew Point: 32°   Wind: 12mph
Humidity: 96%   Direction: 310°NW
Pressure: 29.11"   Gusts: 17mph
Location:  46.35°N, 85.15°W
Report Text: KERY 242134Z AUTO 31010G15KT 10SM OVC010 01/00 A2911 RMK AO2 T00051001
Loading
Personal Weather Stations






























Interactive Weather Map New forecast layout! Learn more

10-Day Weather Forecast

Advertisements
Track Severe Weather on mobile